Time;durP1;ratioP1;P1;durP2;ratioP2;P2;SDS_P1;SDS_P2;PMS_P1;PMS_P2;Temp;Humidity;BMP_temperature;BMP_pressure;BME280_temperature;BME280_humidity;BME280_pressure;Samples;Min_cycle;Max_cycle;Signal;HPM_P1;HPM_P2
2023/02/20 00:01:53;;;;;;;14.07;11.07;;;;;;;9.04;90.82;94971.00;5054642;28;20029;-74
2023/02/20 00:04:18;;;;;;;13.75;11.77;;;;;;;9.19;89.90;94999.59;5036630;28;20044;-76
2023/02/20 00:06:44;;;;;;;16.95;12.07;;;;;;;9.20;89.11;94994.28;5048685;28;20033;-75
2023/02/20 00:09:09;;;;;;;12.25;11.00;;;;;;;9.18;89.07;94998.81;5039028;28;20031;-74
2023/02/20 00:11:35;;;;;;;12.20;10.93;;;;;;;9.16;89.33;94992.16;5058054;28;20040;-75
2023/02/20 00:14:00;;;;;;;13.55;11.20;;;;;;;9.07;89.84;94996.53;5058091;28;20029;-74
2023/02/20 00:16:25;;;;;;;14.10;12.43;;;;;;;9.13;89.78;95007.97;5058996;28;20584;-75
2023/02/20 00:18:51;;;;;;;19.45;12.40;;;;;;;9.14;89.48;95007.03;5057273;28;20029;-76
2023/02/20 00:21:16;;;;;;;14.07;11.65;;;;;;;9.02;90.39;95003.13;5073360;28;20025;-74
2023/02/20 00:23:42;;;;;;;14.05;11.93;;;;;;;8.99;90.12;94997.31;5057329;28;20032;-75
2023/02/20 00:26:11;;;;;;;13.00;11.30;;;;;;;9.02;90.10;95003.13;5073087;28;20127;-76
2023/02/20 00:28:40;;;;;;;14.77;11.80;;;;;;;8.97;90.35;95001.03;5059165;28;20807;-75
2023/02/20 00:31:08;;;;;;;15.07;12.02;;;;;;;8.92;90.74;95014.44;5056416;28;20565;-75
2023/02/20 00:33:35;;;;;;;16.20;13.48;;;;;;;9.02;90.67;95010.88;5062029;28;20032;-74
2023/02/20 00:36:00;;;;;;;16.10;12.18;;;;;;;8.89;92.18;95001.81;5058632;28;20545;-75
2023/02/20 00:38:26;;;;;;;14.98;12.32;;;;;;;8.84;91.99;95006.66;5053760;28;20060;-75
2023/02/20 00:40:51;;;;;;;13.85;12.25;;;;;;;8.91;92.21;95012.00;5057302;28;20021;-76
2023/02/20 00:43:17;;;;;;;14.32;12.82;;;;;;;8.91;92.47;95012.81;5056620;28;20179;-75
2023/02/20 00:45:42;;;;;;;15.73;12.85;;;;;;;8.81;93.60;95014.72;5059013;28;20019;-75
2023/02/20 00:48:07;;;;;;;15.02;12.65;;;;;;;8.72;94.34;95007.94;5072669;28;20549;-74
2023/02/20 00:50:33;;;;;;;15.48;13.88;;;;;;;8.66;94.90;95005.16;5057127;28;20065;-74
2023/02/20 00:52:58;;;;;;;15.63;12.70;;;;;;;8.68;94.88;95000.66;5057039;28;20029;-74
2023/02/20 00:55:24;;;;;;;14.73;12.75;;;;;;;8.55;95.25;94995.13;5058286;28;20029;-74
2023/02/20 00:57:49;;;;;;;18.60;13.15;;;;;;;8.45;96.46;95003.81;5057130;28;20064;-75
2023/02/20 01:00:19;;;;;;;15.82;13.88;;;;;;;8.37;97.54;95008.16;5056019;28;20182;-75
2023/02/20 01:02:45;;;;;;;17.75;12.60;;;;;;;8.25;98.32;95009.38;5043459;28;20035;-75
2023/02/20 01:05:11;;;;;;;17.13;12.93;;;;;;;8.21;98.60;95005.47;5055684;28;20021;-75
2023/02/20 01:07:36;;;;;;;16.30;13.77;;;;;;;8.20;98.85;94998.69;5057452;28;20062;-75
2023/02/20 01:10:02;;;;;;;16.13;13.63;;;;;;;8.16;99.00;95010.25;5057041;28;20033;-75
2023/02/20 01:12:27;;;;;;;15.57;13.80;;;;;;;8.03;99.62;95015.06;5057122;28;20033;-75
2023/02/20 01:14:52;;;;;;;16.80;13.57;;;;;;;7.95;100.00;95014.06;5045121;28;20063;-74
2023/02/20 01:17:18;;;;;;;17.23;13.90;;;;;;;7.93;100.00;95031.44;5049675;28;20029;-75
2023/02/20 01:19:43;;;;;;;18.45;14.63;;;;;;;7.78;100.00;95043.28;5051585;28;20105;-76
2023/02/20 01:22:09;;;;;;;18.48;14.50;;;;;;;7.65;100.00;95042.84;5056809;28;20029;-75
2023/02/20 01:24:34;;;;;;;14.95;13.32;;;;;;;7.57;100.00;95049.72;5037237;28;20430;-74
2023/02/20 01:27:00;;;;;;;15.00;13.43;;;;;;;7.38;100.00;95046.34;5032853;28;20025;-74
2023/02/20 01:29:25;;;;;;;19.00;14.00;;;;;;;7.36;100.00;95043.13;5047972;28;20414;-75
2023/02/20 01:31:51;;;;;;;17.95;14.05;;;;;;;7.17;100.00;95034.75;5056835;28;20037;-75
2023/02/20 01:34:17;;;;;;;18.70;13.93;;;;;;;7.14;100.00;95047.91;5055385;28;20032;-75
2023/02/20 01:36:51;;;;;;;19.38;13.50;;;;;;;7.08;100.00;95057.06;5055724;28;20052;-75
2023/02/20 01:39:22;;;;;;;15.30;13.70;;;;;;;7.06;100.00;95071.03;5052611;28;20106;-75
2023/02/20 01:41:50;;;;;;;16.02;13.18;;;;;;;6.95;100.00;95059.16;5055398;28;20069;-74
2023/02/20 01:44:20;;;;;;;17.35;14.38;;;;;;;6.81;100.00;95063.03;5052035;28;20036;-74
2023/02/20 01:46:50;;;;;;;20.15;14.50;;;;;;;6.89;100.00;95065.72;5065126;28;20519;-75
2023/02/20 01:49:21;;;;;;;19.08;14.77;;;;;;;7.02;100.00;95064.53;5055982;28;20032;-74
2023/02/20 01:51:54;;;;;;;20.25;16.17;;;;;;;6.75;100.00;95055.09;5056073;28;20165;-74
2023/02/20 01:54:21;;;;;;;21.08;16.17;;;;;;;6.83;100.00;95074.03;5059161;28;20025;-74
2023/02/20 01:56:46;;;;;;;18.75;14.93;;;;;;;6.73;100.00;95064.72;5054666;28;20441;-74
2023/02/20 01:59:13;;;;;;;19.67;16.15;;;;;;;6.55;100.00;95071.63;5059933;28;20032;-74
2023/02/20 02:01:38;;;;;;;18.33;15.38;;;;;;;6.53;100.00;95074.31;5058699;28;20435;-74
2023/02/20 02:04:07;;;;;;;17.45;15.20;;;;;;;6.58;100.00;95073.91;5059957;28;20019;-74
2023/02/20 02:06:33;;;;;;;19.05;14.43;;;;;;;6.57;100.00;95065.38;5058691;28;20024;-75
2023/02/20 02:09:02;;;;;;;17.58;15.07;;;;;;;6.58;100.00;95066.19;5038898;28;20032;-75
2023/02/20 02:11:27;;;;;;;17.52;15.18;;;;;;;6.76;100.00;95067.00;5054349;28;20160;-75
2023/02/20 02:13:53;;;;;;;18.80;15.95;;;;;;;6.98;100.00;95068.38;5058501;28;20539;-74
2023/02/20 02:16:26;;;;;;;18.45;15.45;;;;;;;6.94;100.00;95077.31;5058308;28;20070;-75
2023/02/20 02:18:57;;;;;;;17.85;15.05;;;;;;;7.09;100.00;95076.69;5041205;28;20032;-74
2023/02/20 02:22:00;;;;;;;23.17;16.35;;;;;;;7.34;100.00;95078.53;5065460;28;20035;-75
2023/02/20 02:24:46;;;;;;;20.95;15.77;;;;;;;7.65;100.00;95078.94;5057806;28;20091;-75
2023/02/20 02:27:58;;;;;;;21.60;16.50;;;;;;;7.91;100.00;95078.97;5057902;28;20507;-75
2023/02/20 02:30:57;;;;;;;18.00;14.50;;;;;;;8.23;100.00;95074.00;5039655;28;20434;-75
2023/02/20 02:33:31;;;;;;;;;;;;;;;8.36;100.00;95083.94;5063758;28;20036;-75
2023/02/20 02:36:18;;;;;;;16.38;13.13;;;;;;;8.30;100.00;95093.09;5068411;28;20080;-75
2023/02/20 02:38:44;;;;;;;16.05;13.52;;;;;;;8.34;100.00;95091.84;5059753;28;20394;-74
2023/02/20 02:41:15;;;;;;;12.75;11.45;;;;;;;8.38;100.00;95082.81;5060242;28;20032;-75
2023/02/20 02:44:17;;;;;;;13.32;11.05;;;;;;;8.39;100.00;95088.78;5059810;28;20455;-75
2023/02/20 02:47:02;;;;;;;15.40;10.63;;;;;;;8.44;100.00;95102.03;5045614;28;20469;-75
2023/02/20 02:49:51;;;;;;;10.57;9.00;;;;;;;8.35;100.00;95108.09;5058390;28;20472;-76
2023/02/20 02:52:37;;;;;;;9.52;8.25;;;;;;;8.20;100.00;95107.03;5058731;28;20053;-75
2023/02/20 02:55:05;;;;;;;11.20;8.40;;;;;;;8.14;100.00;95116.19;5059286;28;20017;-75
2023/02/20 02:57:31;;;;;;;9.85;8.95;;;;;;;8.13;100.00;95121.47;5057919;28;20035;-75
2023/02/20 03:00:04;;;;;;;9.07;8.27;;;;;;;8.15;100.00;95115.25;5076517;28;20024;-76
2023/02/20 03:02:33;;;;;;;13.30;7.70;;;;;;;8.12;100.00;95131.03;5041438;28;20033;-76
2023/02/20 03:05:00;;;;;;;7.88;6.75;;;;;;;7.92;100.00;95116.69;5060440;28;20029;-76
2023/02/20 03:07:27;;;;;;;7.63;6.25;;;;;;;7.82;100.00;95124.50;5058964;28;20482;-76
2023/02/20 03:09:59;;;;;;;6.43;5.80;;;;;;;7.71;100.00;95119.56;5057970;28;20036;-75
2023/02/20 03:12:25;;;;;;;6.45;5.05;;;;;;;7.66;100.00;95126.16;5044524;28;20083;-76
2023/02/20 03:18:00;;;;;;;5.10;4.63;;;;;;;7.49;100.00;95152.72;5061126;28;20513;-74
2023/02/20 03:20:26;;;;;;;6.30;5.47;;;;;;;7.44;100.00;95158.31;5058212;28;20029;-75
2023/02/20 03:22:58;;;;;;;6.57;4.95;;;;;;;7.45;100.00;95157.34;5040026;28;20514;-73
2023/02/20 03:25:33;;;;;;;5.88;5.28;;;;;;;7.41;100.00;95163.78;5045636;28;20051;-74
2023/02/20 03:28:02;;;;;;;4.90;4.40;;;;;;;7.42;100.00;95155.88;5055098;28;20023;-75
2023/02/20 03:30:39;;;;;;;4.50;4.13;;;;;;;7.38;100.00;95154.53;5058839;28;20029;-75
2023/02/20 03:44:33;;;;;;;5.18;4.68;;;;;;;7.15;100.00;95168.00;5057512;28;20031;-74
2023/02/20 03:47:00;;;;;;;5.18;4.78;;;;;;;7.02;100.00;95168.34;5058507;28;20024;-74
2023/02/20 03:49:31;;;;;;;5.22;4.72;;;;;;;6.94;100.00;95168.22;5058206;28;20085;-74
2023/02/20 03:51:56;;;;;;;4.78;4.38;;;;;;;6.94;100.00;95175.97;5058414;28;20024;-75
2023/02/20 03:54:22;;;;;;;4.88;4.47;;;;;;;6.88;100.00;95172.19;5053707;28;20033;-74
2023/02/20 03:56:51;;;;;;;6.22;5.10;;;;;;;6.83;100.00;95182.13;5051153;28;20452;-74
2023/02/20 03:59:34;;;;;;;;;;;;;;;6.74;100.00;95182.16;5053399;28;20032;-74
2023/02/20 04:02:04;;;;;;;6.18;5.30;;;;;;;6.71;100.00;95175.50;5051340;28;20011;-75
2023/02/20 04:04:33;;;;;;;5.68;5.18;;;;;;;6.69;100.00;95166.31;5057665;28;20033;-74
2023/02/20 04:06:58;;;;;;;;;;;;;;;6.62;100.00;95172.97;5058455;28;20461;-74
2023/02/20 04:09:28;;;;;;;8.88;8.07;;;;;;;6.52;100.00;95174.81;5057686;28;19917;-73
2023/02/20 04:11:57;;;;;;;5.25;4.75;;;;;;;6.46;100.00;95176.16;5057147;28;20210;-74
2023/02/20 04:14:26;;;;;;;5.65;5.15;;;;;;;6.39;100.00;95184.59;5057236;28;20040;-74
2023/02/20 04:17:06;;;;;;;6.07;5.47;;;;;;;6.29;100.00;95190.53;5047209;28;20028;-75
2023/02/20 04:19:31;;;;;;;5.70;5.20;;;;;;;6.29;100.00;95195.69;5068038;28;20105;-74
2023/02/20 04:22:00;;;;;;;5.55;5.05;;;;;;;6.14;100.00;95170.53;5048284;28;20602;-75
2023/02/20 04:24:35;;;;;;;6.63;5.07;;;;;;;6.23;100.00;95170.53;5055992;28;20029;-74
2023/02/20 04:27:00;;;;;;;5.18;4.72;;;;;;;6.20;100.00;95180.28;5057960;28;20047;-74
2023/02/20 04:29:27;;;;;;;4.85;4.45;;;;;;;6.20;100.00;95198.28;5038236;28;20033;-74
2023/02/20 04:31:52;;;;;;;5.68;4.72;;;;;;;6.24;100.00;95187.59;5057144;28;20103;-75
2023/02/20 04:34:18;;;;;;;5.75;5.15;;;;;;;6.32;100.00;95189.47;5050555;28;20115;-75
2023/02/20 04:36:43;;;;;;;6.20;4.40;;;;;;;6.42;100.00;95187.69;5059916;28;20060;-74
2023/02/20 04:39:10;;;;;;;5.43;4.53;;;;;;;6.42;100.00;95190.25;5037077;28;20502;-75
2023/02/20 04:41:35;;;;;;;4.32;4.00;;;;;;;6.37;100.00;95187.28;5029969;28;20246;-74
2023/02/20 04:46:44;;;;;;;4.35;3.95;;;;;;;6.19;100.00;95182.06;5050766;28;20044;-75
2023/02/20 04:49:10;;;;;;;3.95;3.65;;;;;;;6.16;100.00;95184.09;5056738;28;20024;-75
2023/02/20 04:51:35;;;;;;;4.50;4.10;;;;;;;6.27;100.00;95194.19;5058431;28;20474;-76
2023/02/20 04:54:01;;;;;;;3.88;3.58;;;;;;;6.31;100.00;95204.09;5057523;28;20012;-75
2023/02/20 04:56:26;;;;;;;4.40;4.00;;;;;;;6.34;100.00;95192.72;5057203;28;20077;-75
2023/02/20 04:58:52;;;;;;;4.53;4.05;;;;;;;6.54;100.00;95211.47;5052444;28;20083;-76
2023/02/20 05:01:17;;;;;;;5.32;3.60;;;;;;;6.62;100.00;95212.38;5045588;28;20143;-76
2023/02/20 05:03:42;;;;;;;4.80;4.05;;;;;;;6.74;100.00;95218.97;5056225;28;20435;-75
2023/02/20 05:06:08;;;;;;;4.13;3.72;;;;;;;6.76;100.00;95205.97;5058616;28;20024;-75
2023/02/20 05:08:33;;;;;;;4.38;4.07;;;;;;;6.81;100.00;95232.91;5056150;28;20032;-76
2023/02/20 05:10:59;;;;;;;4.03;3.65;;;;;;;6.89;100.00;95238.19;5056778;28;20021;-75
2023/02/20 05:13:24;;;;;;;4.43;4.05;;;;;;;6.89;100.00;95243.34;5057077;28;20033;-75
2023/02/20 05:15:49;;;;;;;4.20;3.80;;;;;;;6.83;100.00;95246.47;5056798;28;20037;-75
2023/02/20 05:18:28;;;;;;;5.95;3.92;;;;;;;6.91;100.00;95245.75;5074055;28;20028;-75
2023/02/20 05:23:38;;;;;;;3.42;3.22;;;;;;;6.93;100.00;95253.34;5046592;28;20522;-75
2023/02/20 05:26:08;;;;;;;3.85;3.55;;;;;;;7.09;100.00;95263.84;5068114;28;20037;-74
2023/02/20 05:28:35;;;;;;;4.30;3.90;;;;;;;7.06;100.00;95266.72;5057043;28;20036;-74
2023/02/20 05:31:01;;;;;;;4.40;4.00;;;;;;;7.15;100.00;95265.84;5058273;28;20037;-74
2023/02/20 05:33:26;;;;;;;4.38;3.97;;;;;;;7.17;100.00;95269.09;5063954;28;20028;-75
2023/02/20 05:35:51;;;;;;;4.20;3.80;;;;;;;7.20;100.00;95276.53;5072247;28;20479;-76
2023/02/20 05:38:18;;;;;;;4.35;3.75;;;;;;;7.24;100.00;95285.59;5061052;28;20574;-75
2023/02/20 05:40:43;;;;;;;4.05;3.53;;;;;;;7.27;100.00;95288.72;5060617;28;20517;-76
2023/02/20 05:43:08;;;;;;;3.08;2.80;;;;;;;7.40;100.00;95288.38;5060001;28;20029;-76
2023/02/20 05:45:34;;;;;;;4.18;2.90;;;;;;;7.49;99.89;95295.25;5061091;28;20031;-75
2023/02/20 05:47:59;;;;;;;3.30;2.78;;;;;;;8.03;97.39;95291.78;5060340;28;20289;-76
2023/02/20 05:50:24;;;;;;;2.75;2.50;;;;;;;7.91;93.98;95290.38;5055937;28;20621;-76
2023/02/20 05:52:50;;;;;;;2.58;2.38;;;;;;;7.76;94.04;95281.53;5051479;28;20029;-75
2023/02/20 05:55:15;;;;;;;2.67;2.47;;;;;;;8.14;92.13;95301.91;5059219;28;20020;-76
2023/02/20 05:57:41;;;;;;;2.20;2.00;;;;;;;9.46;87.10;95304.28;5060786;28;20025;-76
2023/02/20 06:00:07;;;;;;;2.88;2.33;;;;;;;10.61;80.59;95302.63;5061161;28;20551;-76
2023/02/20 06:02:33;;;;;;;2.38;2.17;;;;;;;11.97;64.63;95305.06;5059428;28;20041;-76
2023/02/20 06:04:58;;;;;;;2.65;2.40;;;;;;;11.25;66.62;95300.94;5051413;28;20066;-77
2023/02/20 06:07:24;;;;;;;3.03;2.78;;;;;;;12.24;62.19;95314.97;5065563;28;20024;-76
2023/02/20 06:09:49;;;;;;;3.03;2.72;;;;;;;13.35;56.47;95310.03;5074582;28;20047;-76
2023/02/20 06:12:15;;;;;;;4.53;3.00;;;;;;;14.72;51.91;95310.84;5066770;28;20048;-75
2023/02/20 06:14:43;;;;;;;3.70;3.30;;;;;;;13.76;54.10;95313.78;5070345;28;20474;-81
2023/02/20 06:17:09;;;;;;;6.90;3.25;;;;;;;15.53;50.65;95304.25;5058509;28;20063;-86
2023/02/20 06:19:34;;;;;;;4.15;3.33;;;;;;;15.50;49.44;95300.22;5026476;28;20040;-85
2023/02/20 06:22:04;;;;;;;3.72;3.42;;;;;;;13.12;54.19;95310.09;5053550;28;20025;-90
2023/02/20 06:24:29;;;;;;;6.00;4.05;;;;;;;11.71;60.78;95307.94;5058662;28;20033;-76
2023/02/20 06:26:55;;;;;;;5.68;3.92;;;;;;;14.49;52.93;95307.63;5061981;28;20426;-77
2023/02/20 06:29:20;;;;;;;4.93;4.53;;;;;;;14.47;51.32;95294.78;5051879;28;20041;-78
2023/02/20 06:31:46;;;;;;;4.97;4.68;;;;;;;14.68;51.42;95297.38;5064011;28;20033;-76
2023/02/20 06:34:12;;;;;;;4.90;4.60;;;;;;;14.22;52.79;95299.50;5049542;28;20036;-77
2023/02/20 06:36:39;;;;;;;5.20;4.80;;;;;;;13.63;54.64;95295.38;5070500;28;20685;-74
2023/02/20 06:39:07;;;;;;;6.28;5.53;;;;;;;14.14;53.78;95285.78;5076484;28;20121;-78
2023/02/20 06:41:32;;;;;;;5.32;4.97;;;;;;;15.26;50.89;95296.22;5041050;28;20029;-75
2023/02/20 06:43:57;;;;;;;5.35;4.90;;;;;;;16.59;46.94;95293.22;5063853;28;20043;-75
2023/02/20 06:46:24;;;;;;;5.18;4.78;;;;;;;17.80;43.89;95306.66;5067192;28;20028;-76
2023/02/20 06:48:52;;;;;;;5.35;4.80;;;;;;;18.11;42.72;95299.91;5057772;28;20818;-76
2023/02/20 06:51:19;;;;;;;4.22;3.83;;;;;;;14.43;48.84;95297.94;5057142;28;20182;-77
2023/02/20 06:53:46;;;;;;;3.38;3.17;;;;;;;17.58;42.58;95289.59;5060600;28;20035;-75
2023/02/20 06:56:21;;;;;;;3.10;2.90;;;;;;;18.99;39.11;95282.41;5071710;28;20494;-77
2023/02/20 06:58:47;;;;;;;2.80;2.60;;;;;;;18.90;38.75;95295.81;5061339;28;20134;-75
2023/02/20 07:01:14;;;;;;;2.90;2.70;;;;;;;19.23;37.14;95298.16;5039779;28;20044;-78
2023/02/20 07:03:40;;;;;;;6.18;3.17;;;;;;;18.48;38.83;95303.53;5061409;28;20070;-75
2023/02/20 07:06:06;;;;;;;3.15;2.85;;;;;;;19.52;37.58;95290.69;5077209;28;20041;-77
2023/02/20 07:08:31;;;;;;;3.60;3.10;;;;;;;18.17;38.65;95299.84;5074015;28;20024;-78
2023/02/20 07:10:57;;;;;;;5.45;3.00;;;;;;;14.67;45.55;95305.41;5055610;28;20757;-77
2023/02/20 07:13:23;;;;;;;3.47;3.25;;;;;;;16.43;42.13;95299.59;5068335;28;20032;-78
2023/02/20 07:15:48;;;;;;;3.45;3.17;;;;;;;16.70;42.00;95305.69;5065232;28;20147;-75
2023/02/20 07:18:16;;;;;;;4.15;3.25;;;;;;;16.40;42.44;95302.63;5071533;28;20071;-76
2023/02/20 07:20:42;;;;;;;5.00;2.83;;;;;;;19.07;38.21;95308.44;5076515;28;20028;-76
2023/02/20 07:23:07;;;;;;;3.50;3.20;;;;;;;18.78;37.89;95308.00;5076463;28;20043;-76
2023/02/20 07:25:32;;;;;;;5.63;3.38;;;;;;;19.94;35.82;95308.19;5075908;28;20052;-78
2023/02/20 07:27:58;;;;;;;4.18;3.13;;;;;;;20.91;34.28;95304.53;5074040;28;20028;-77
2023/02/20 07:30:24;;;;;;;6.53;3.05;;;;;;;20.94;34.12;95304.06;5060958;28;20024;-77
2023/02/20 07:32:50;;;;;;;3.30;3.10;;;;;;;21.39;33.25;95317.56;5070711;28;20077;-76
2023/02/20 07:35:15;;;;;;;3.63;2.92;;;;;;;20.78;33.38;95317.88;5058304;28;20055;-78
2023/02/20 07:37:41;;;;;;;2.90;2.70;;;;;;;20.41;34.64;95314.56;5047341;28;20029;-77
2023/02/20 07:40:07;;;;;;;3.15;2.85;;;;;;;19.59;35.39;95296.66;5044537;28;20115;-79
2023/02/20 07:42:33;;;;;;;2.70;2.50;;;;;;;19.48;35.76;95316.59;5054798;28;20051;-76
2023/02/20 07:44:58;;;;;;;3.25;2.65;;;;;;;20.59;34.00;95311.06;5039867;28;20494;-77
2023/02/20 07:47:24;;;;;;;3.20;2.38;;;;;;;20.17;34.23;95315.44;5054219;28;20086;-77
2023/02/20 07:49:49;;;;;;;2.80;2.60;;;;;;;20.79;33.42;95319.50;5056836;28;20032;-76
2023/02/20 07:52:14;;;;;;;4.38;2.47;;;;;;;19.17;35.30;95311.38;5072503;28;20678;-78
2023/02/20 07:54:40;;;;;;;3.80;2.67;;;;;;;19.41;35.70;95313.22;5057549;28;20040;-78
2023/02/20 07:57:05;;;;;;;2.92;2.72;;;;;;;19.09;34.81;95309.00;5053378;28;20132;-77
2023/02/20 07:59:31;;;;;;;4.40;2.60;;;;;;;19.59;34.26;95317.69;5053181;28;20047;-75
2023/02/20 08:01:56;;;;;;;3.08;2.42;;;;;;;17.69;37.47;95317.75;5055062;28;20043;-80
2023/02/20 08:04:21;;;;;;;2.75;2.55;;;;;;;16.90;38.49;95324.03;5057017;28;20108;-77
2023/02/20 08:06:47;;;;;;;3.08;2.22;;;;;;;16.67;39.33;95316.56;5056433;28;20032;-76
2023/02/20 08:09:12;;;;;;;3.58;2.53;;;;;;;15.66;40.37;95328.66;5068873;28;20040;-77
2023/02/20 08:11:38;;;;;;;6.95;2.75;;;;;;;14.92;42.72;95330.09;5059788;28;20028;-76
2023/02/20 08:14:04;;;;;;;6.20;2.67;;;;;;;16.28;40.46;95341.56;5056657;28;20017;-80
2023/02/20 08:16:30;;;;;;;2.63;1.88;;;;;;;16.07;39.89;95340.91;5055907;28;20551;-76
2023/02/20 08:18:55;;;;;;;4.22;1.80;;;;;;;16.57;39.51;95329.22;5067223;28;20024;-76
2023/02/20 08:21:21;;;;;;;2.35;1.90;;;;;;;18.38;36.08;95323.16;5030771;28;20085;-80
2023/02/20 08:23:47;;;;;;;3.90;1.58;;;;;;;19.18;34.44;95320.84;5055470;28;20037;-77
2023/02/20 08:26:13;;;;;;;1.58;1.48;;;;;;;21.06;31.21;95320.72;5053737;28;20379;-75
2023/02/20 08:28:38;;;;;;;1.30;1.20;;;;;;;20.59;31.88;95329.50;5056346;28;20154;-79
2023/02/20 08:31:04;;;;;;;1.60;1.50;;;;;;;20.61;32.00;95322.19;5055620;28;20028;-81
2023/02/20 08:33:31;;;;;;;1.50;1.40;;;;;;;21.16;31.22;95323.63;5059314;28;20028;-76
2023/02/20 08:35:56;;;;;;;4.28;1.42;;;;;;;20.49;31.94;95327.41;5066261;28;20041;-77
2023/02/20 08:38:28;;;;;;;3.70;1.40;;;;;;;20.93;31.76;95324.34;5056249;28;20024;-76
2023/02/20 08:40:54;;;;;;;1.50;1.02;;;;;;;22.03;30.67;95324.56;5056071;28;20040;-78
2023/02/20 08:43:20;;;;;;;4.13;1.08;;;;;;;22.35;30.52;95323.09;5055093;28;20826;-76
2023/02/20 08:45:45;;;;;;;4.07;1.30;;;;;;;21.93;29.95;95321.72;5055724;28;20040;-76
2023/02/20 08:48:11;;;;;;;3.08;0.90;;;;;;;22.02;30.10;95322.97;5055367;28;20048;-75
2023/02/20 08:50:36;;;;;;;3.63;1.25;;;;;;;21.46;30.34;95320.91;5058110;28;20090;-77
2023/02/20 08:53:02;;;;;;;1.08;0.73;;;;;;;21.60;30.21;95316.22;5046044;28;20040;-76
2023/02/20 08:55:27;;;;;;;1.90;1.40;;;;;;;21.83;30.22;95318.84;5044813;28;20040;-75
2023/02/20 08:57:54;;;;;;;0.85;0.75;;;;;;;21.53;30.35;95303.16;5049216;28;20028;-74
2023/02/20 09:00:21;;;;;;;2.70;1.17;;;;;;;21.68;29.72;95321.94;5052812;28;20466;-81
2023/02/20 09:02:47;;;;;;;4.43;1.08;;;;;;;20.31;31.69;95311.66;5055532;28;20024;-77
2023/02/20 09:05:14;;;;;;;2.80;0.90;;;;;;;20.03;32.56;95304.28;5051839;28;20020;-84
2023/02/20 09:07:40;;;;;;;3.47;1.20;;;;;;;21.13;31.13;95308.25;5049042;28;20036;-76
2023/02/20 09:10:06;;;;;;;0.70;0.70;;;;;;;21.63;29.99;95307.84;5049783;28;20051;-75
2023/02/20 09:12:31;;;;;;;0.90;0.80;;;;;;;21.64;30.72;95315.50;5045347;28;20482;-76
2023/02/20 09:14:59;;;;;;;6.50;0.88;;;;;;;20.45;30.87;95294.69;5036793;28;20470;-74
2023/02/20 09:17:25;;;;;;;2.60;1.15;;;;;;;19.92;32.44;95286.59;5052933;28;20464;-75
2023/02/20 09:19:51;;;;;;;3.78;0.95;;;;;;;20.70;30.29;95292.69;5055470;28;20036;-76
2023/02/20 09:22:23;;;;;;;2.92;0.73;;;;;;;21.03;30.26;95292.19;5055008;28;20032;-75
2023/02/20 09:24:50;;;;;;;6.15;1.02;;;;;;;20.10;31.11;95297.09;5053558;28;20332;-75
2023/02/20 09:27:15;;;;;;;3.42;0.80;;;;;;;21.13;30.30;95297.72;5052423;28;20033;-77
2023/02/20 09:29:42;;;;;;;7.10;0.90;;;;;;;20.45;30.85;95298.09;5047017;28;20559;-79
2023/02/20 09:32:07;;;;;;;2.13;1.08;;;;;;;20.72;31.18;95308.25;5048792;28;20032;-78
2023/02/20 09:34:33;;;;;;;5.15;1.00;;;;;;;20.65;30.50;95315.44;5055279;28;20093;-76
2023/02/20 09:36:59;;;;;;;2.53;0.80;;;;;;;21.04;30.15;95315.66;5050862;28;20220;-78
2023/02/20 09:39:24;;;;;;;7.35;1.17;;;;;;;21.34;29.94;95313.00;5049013;28;20402;-78
2023/02/20 09:42:15;;;;;;;3.40;0.90;;;;;;;21.44;29.73;95310.59;5053924;28;20042;-74
2023/02/20 09:45:07;;;;;;;4.10;1.00;;;;;;;20.11;31.12;95311.03;5053318;28;20490;-74
2023/02/20 09:47:57;;;;;;;5.50;1.08;;;;;;;20.97;30.46;95306.25;5037721;28;20123;-75
2023/02/20 09:50:34;;;;;;;4.53;1.15;;;;;;;20.43;31.47;95309.88;5056694;28;20064;-75
2023/02/20 09:53:07;;;;;;;4.05;0.90;;;;;;;20.10;31.54;95302.34;5053109;28;20615;-75
2023/02/20 09:55:38;;;;;;;1.08;0.70;;;;;;;20.21;31.33;95309.50;5056588;28;20028;-76
2023/02/20 09:58:04;;;;;;;4.45;1.02;;;;;;;20.49;30.77;95291.34;5054659;28;20548;-76
2023/02/20 10:00:31;;;;;;;1.33;0.60;;;;;;;20.63;30.66;95289.34;5055578;28;20043;-74
2023/02/20 10:03:10;;;;;;;2.30;0.60;;;;;;;20.45;31.20;95300.72;5038248;28;20024;-75
2023/02/20 10:05:35;;;;;;;;;;;;;;;20.44;31.00;95298.31;5036438;28;20489;-75
2023/02/20 10:08:01;;;;;;;2.08;0.80;;;;;;;20.01;31.60;95293.16;5054210;28;19924;-79
2023/02/20 10:10:37;;;;;;;9.00;1.00;;;;;;;20.76;31.74;95290.97;5049922;28;20033;-75
2023/02/20 10:13:15;;;;;;;6.80;0.93;;;;;;;20.79;31.52;95306.34;5050763;28;20032;-74
2023/02/20 10:15:58;;;;;;;5.40;1.65;;;;;;;20.11;32.03;95293.44;5051446;28;20525;-76
2023/02/20 10:18:58;;;;;;;4.63;1.00;;;;;;;20.18;31.22;95296.81;5066898;28;20036;-75
2023/02/20 10:21:42;;;;;;;6.00;0.55;;;;;;;20.78;30.59;95286.28;5053837;28;20028;-74
2023/02/20 10:24:41;;;;;;;1.98;0.75;;;;;;;21.12;30.45;95288.22;5055674;28;20511;-76
2023/02/20 10:27:22;;;;;;;8.93;0.70;;;;;;;18.41;33.64;95275.53;5051736;28;20129;-75
2023/02/20 10:29:48;;;;;;;5.70;0.70;;;;;;;16.46;35.96;95275.66;5055609;28;20110;-75
2023/02/20 10:32:19;;;;;;;2.88;0.70;;;;;;;15.62;38.59;95272.56;5050492;28;20062;-75
2023/02/20 10:35:07;;;;;;;3.47;0.85;;;;;;;16.50;38.58;95263.00;5043773;28;20040;-76
2023/02/20 10:37:54;;;;;;;5.15;0.60;;;;;;;15.27;40.25;95268.34;5052722;28;20043;-82
2023/02/20 10:40:32;;;;;;;2.65;1.05;;;;;;;15.32;38.98;95256.31;5056530;28;20566;-77
2023/02/20 10:43:15;;;;;;;1.88;0.60;;;;;;;15.01;39.10;95255.09;5064308;28;20032;-80
2023/02/20 10:45:44;;;;;;;4.18;0.65;;;;;;;15.54;37.90;95251.84;5056195;28;20421;-78
2023/02/20 10:48:14;;;;;;;1.23;0.60;;;;;;;15.23;38.15;95233.16;5060119;28;20064;-76
2023/02/20 10:51:01;;;;;;;1.80;0.80;;;;;;;14.50;39.06;95231.03;5056635;28;20538;-79
2023/02/20 10:53:48;;;;;;;2.20;0.70;;;;;;;15.25;38.68;95231.97;5056273;28;20063;-77
2023/02/20 10:56:39;;;;;;;3.30;0.63;;;;;;;14.98;38.14;95235.44;5054351;28;20849;-80
2023/02/20 10:59:23;;;;;;;2.78;0.60;;;;;;;15.20;39.03;95230.94;5046392;28;20091;-76
2023/02/20 11:01:54;;;;;;;1.33;0.68;;;;;;;15.10;38.63;95240.91;5044069;28;20025;-76
2023/02/20 11:04:22;;;;;;;0.63;0.57;;;;;;;14.37;39.12;95225.72;5057958;28;20125;-77
2023/02/20 11:06:57;;;;;;;2.47;0.60;;;;;;;14.86;38.82;95239.56;5052516;28;20020;-78
2023/02/20 11:09:24;;;;;;;1.13;0.50;;;;;;;15.03;37.56;95235.66;5050730;28;20395;-79
2023/02/20 11:11:52;;;;;;;4.95;0.73;;;;;;;14.75;39.03;95229.63;5054306;28;20024;-76
2023/02/20 11:14:23;;;;;;;0.50;0.50;;;;;;;14.74;40.38;95220.19;5060665;28;20496;-77
2023/02/20 11:17:02;;;;;;;2.28;0.60;;;;;;;14.58;39.29;95207.44;5062778;28;20108;-79
2023/02/20 11:19:39;;;;;;;0.90;0.40;;;;;;;14.77;38.13;95206.78;5042378;28;20056;-81
2023/02/20 11:22:04;;;;;;;2.42;0.70;;;;;;;14.53;39.19;95207.22;5057471;28;20045;-76
2023/02/20 11:24:35;;;;;;;2.10;0.70;;;;;;;14.48;39.20;95207.75;5053588;28;20117;-79
2023/02/20 11:27:23;;;;;;;1.27;0.60;;;;;;;14.47;38.17;95211.38;5076342;28;20016;-75
2023/02/20 11:30:00;;;;;;;2.97;0.68;;;;;;;14.39;38.19;95200.25;5052422;28;20028;-77
2023/02/20 11:32:39;;;;;;;2.38;0.73;;;;;;;14.46;39.14;95219.38;5062811;28;20070;-75
2023/02/20 11:35:17;;;;;;;3.10;0.90;;;;;;;13.78;39.54;95218.06;5066482;28;20099;-77
2023/02/20 11:37:43;;;;;;;0.98;0.60;;;;;;;14.19;39.20;95213.88;5052715;28;20036;-76
2023/02/20 11:40:15;;;;;;;0.80;0.50;;;;;;;14.08;39.61;95219.59;5040415;28;20032;-76
2023/02/20 11:42:41;;;;;;;3.50;0.65;;;;;;;14.43;40.34;95211.94;5055030;28;20117;-77
2023/02/20 11:45:15;;;;;;;0.50;0.40;;;;;;;14.54;40.31;95209.63;5057411;28;20154;-75
2023/02/20 11:47:41;;;;;;;0.75;0.60;;;;;;;14.23;39.39;95204.72;5059520;28;20025;-78
2023/02/20 11:50:11;;;;;;;2.85;0.40;;;;;;;14.56;37.39;95210.25;5058237;28;20036;-77
2023/02/20 11:52:36;;;;;;;2.67;0.68;;;;;;;14.80;38.77;95200.41;5071975;28;20048;-80
2023/02/20 11:55:20;;;;;;;0.85;0.55;;;;;;;14.73;39.68;95201.16;5055017;28;20489;-75
2023/02/20 11:57:47;;;;;;;0.95;0.68;;;;;;;14.46;38.58;95188.91;5060271;28;20051;-77
2023/02/20 12:00:20;;;;;;;1.27;0.50;;;;;;;14.54;37.14;95201.00;5056593;28;20028;-75
2023/02/20 12:03:08;;;;;;;0.45;0.40;;;;;;;14.72;38.99;95196.13;5051976;28;20616;-77